PWSweather.com
Personal Weather Stations
Station Observations
ELGHEKO
El Gheko Neighborhood Association, Tucson, AZ 85710

El Gheko Neighborhood AssociationTucson, AZ 85710

Lat: 32.226108, Lon: -110.84443

Elevation: 2598

Station Type: Davis 6153 Vantage Pro 2

http://www.elgheko.us

High Low Average
Temperature 100.1°F37.8°C 74.3°F23.5°C 88.1°F31.2°C
Dew Point 64.7°F18.2°C 56.4°F13.6°C 60.8°F16.0°C
Winds 8.0 mph 12.9 kmh Calm Calm 3.0 mph SW4.8 kmh SW
Wind Gusts 14.0 mph22.5 kmh 1.0 mph1.6 kmh 7.0 mph11.3 kmh
Humidity 69% 26% 43%
Pressure 29.82 in1009.8 mb 29.64 in1003.7 mb -
Precipitation 0.00 in0.0 mm - -
Hour Temp Dew Point Humidity Winds Wind Gusts Pressure Precip Precip Rate Daily Precip Total
12:00 AM 78.0°F25.6°C 64.4°F18.0°C 63% 2.0 mph SSE3.2 kmh SSE 6.0 mph9.7 kmh 29.78 in1008.5 mb 0.00 in0.0 mm 0.00 in0.0 mm 0.00 in0.0 mm
12:05 AM 78.0°F25.6°C 63.9°F17.7°C 62% 2.0 mph SE3.2 kmh SE 5.0 mph8.0 kmh 29.78 in1008.5 mb 0.00 in0.0 mm 0.00 in0.0 mm 0.00 in0.0 mm
12:10 AM 77.9°F25.5°C 63.8°F17.7°C 62% 1.0 mph SSE1.6 kmh SSE 4.0 mph6.4 kmh 29.78 in1008.5 mb 0.00 in0.0 mm 0.00 in0.0 mm 0.00 in0.0 mm
12:15 AM 77.9°F25.5°C 63.8°F17.7°C 62% Calm Calm 2.0 mph3.2 kmh 29.78 in1008.5 mb 0.00 in0.0 mm 0.00 in0.0 mm 0.00 in0.0 mm
12:20 AM 77.8°F25.4°C 64.2°F17.9°C 63% Calm Calm 1.0 mph1.6 kmh 29.78 in1008.5 mb 0.00 in0.0 mm 0.00 in0.0 mm 0.00 in0.0 mm
12:25 AM 77.7°F25.4°C 64.1°F17.8°C 63% Calm Calm 2.0 mph3.2 kmh 29.78 in1008.5 mb 0.00 in0.0 mm 0.00 in0.0 mm 0.00 in0.0 mm
12:30 AM 77.6°F25.3°C 64.0°F17.8°C 63% Calm Calm 2.0 mph3.2 kmh 29.78 in1008.5 mb 0.00 in0.0 mm 0.00 in0.0 mm 0.00 in0.0 mm
12:35 AM 77.5°F25.3°C 63.9°F17.7°C 63% Calm Calm 2.0 mph3.2 kmh 29.78 in1008.5 mb 0.00 in0.0 mm 0.00 in0.0 mm 0.00 in0.0 mm
12:40 AM 77.4°F25.2°C 63.8°F17.7°C 63% 1.0 mph SSE1.6 kmh SSE 2.0 mph3.2 kmh 29.78 in1008.5 mb 0.00 in0.0 mm 0.00 in0.0 mm 0.00 in0.0 mm
12:45 AM 77.3°F25.2°C 64.2°F17.9°C 64% 1.0 mph SSE1.6 kmh SSE 2.0 mph3.2 kmh 29.78 in1008.5 mb 0.00 in0.0 mm 0.00 in0.0 mm 0.00 in0.0 mm
12:50 AM 77.3°F25.2°C 64.2°F17.9°C 64% 1.0 mph SSE1.6 kmh SSE 2.0 mph3.2 kmh 29.78 in1008.5 mb 0.00 in0.0 mm 0.00 in0.0 mm 0.00 in0.0 mm
12:55 AM 77.2°F25.1°C 64.1°F17.8°C 64% 1.0 mph SSE1.6 kmh SSE 2.0 mph3.2 kmh 29.78 in1008.5 mb 0.00 in0.0 mm 0.00 in0.0 mm 0.00 in0.0 mm
01:00 AM 77.2°F25.1°C 64.1°F17.8°C 64% 1.0 mph SSE1.6 kmh SSE 2.0 mph3.2 kmh 29.78 in1008.5 mb 0.00 in0.0 mm 0.00 in0.0 mm 0.00 in0.0 mm
01:05 AM 77.2°F25.1°C 64.1°F17.8°C 64% 1.0 mph SSE1.6 kmh SSE 2.0 mph3.2 kmh 29.78 in1008.5 mb 0.00 in0.0 mm 0.00 in0.0 mm 0.00 in0.0 mm
01:10 AM 77.1°F25.1°C 64.0°F17.8°C 64% 1.0 mph SSE1.6 kmh SSE 2.0 mph3.2 kmh 29.78 in1008.5 mb 0.00 in0.0 mm 0.00 in0.0 mm 0.00 in0.0 mm
01:15 AM 77.1°F25.1°C 64.0°F17.8°C 64% 1.0 mph SSE1.6 kmh SSE 4.0 mph6.4 kmh 29.78 in1008.5 mb 0.00 in0.0 mm 0.00 in0.0 mm 0.00 in0.0 mm
01:20 AM 77.1°F25.1°C 64.0°F17.8°C 64% 1.0 mph SSE1.6 kmh SSE 4.0 mph6.4 kmh 29.78 in1008.5 mb 0.00 in0.0 mm 0.00 in0.0 mm 0.00 in0.0 mm
01:25 AM 77.0°F25.0°C 63.9°F17.7°C 64% 1.0 mph SSE1.6 kmh SSE 4.0 mph6.4 kmh 29.77 in1008.1 mb 0.00 in0.0 mm 0.00 in0.0 mm 0.00 in0.0 mm
01:30 AM 77.0°F25.0°C 63.9°F17.7°C 64% 1.0 mph SSE1.6 kmh SSE 4.0 mph6.4 kmh 29.77 in1008.1 mb 0.00 in0.0 mm 0.00 in0.0 mm 0.00 in0.0 mm
01:35 AM 77.0°F25.0°C 63.9°F17.7°C 64% 1.0 mph SSE1.6 kmh SSE 2.0 mph3.2 kmh 29.77 in1008.1 mb 0.00 in0.0 mm 0.00 in0.0 mm 0.00 in0.0 mm
01:40 AM 76.9°F24.9°C 63.8°F17.7°C 64% 1.0 mph SSE1.6 kmh SSE 2.0 mph3.2 kmh 29.78 in1008.5 mb 0.00 in0.0 mm 0.00 in0.0 mm 0.00 in0.0 mm
01:45 AM 76.9°F24.9°C 63.8°F17.7°C 64% Calm Calm 1.0 mph1.6 kmh 29.78 in1008.5 mb 0.00 in0.0 mm 0.00 in0.0 mm 0.00 in0.0 mm
01:50 AM 76.8°F24.9°C 63.7°F17.6°C 64% Calm Calm 1.0 mph1.6 kmh 29.78 in1008.5 mb 0.00 in0.0 mm 0.00 in0.0 mm 0.00 in0.0 mm
01:55 AM 76.7°F24.8°C 63.6°F17.6°C 64% Calm Calm 2.0 mph3.2 kmh 29.78 in1008.5 mb 0.00 in0.0 mm 0.00 in0.0 mm 0.00 in0.0 mm
02:00 AM 76.6°F24.8°C 63.5°F17.5°C 64% Calm Calm 2.0 mph3.2 kmh 29.78 in1008.5 mb 0.00 in0.0 mm 0.00 in0.0 mm 0.00 in0.0 mm
02:05 AM 76.5°F24.7°C 63.9°F17.7°C 65% Calm Calm 1.0 mph1.6 kmh 29.78 in1008.5 mb 0.00 in0.0 mm 0.00 in0.0 mm 0.00 in0.0 mm
02:10 AM 76.4°F24.7°C 63.8°F17.7°C 65% Calm Calm 2.0 mph3.2 kmh 29.78 in1008.5 mb 0.00 in0.0 mm 0.00 in0.0 mm 0.00 in0.0 mm
02:15 AM 76.3°F24.6°C 63.7°F17.6°C 65% 1.0 mph SSE1.6 kmh SSE 2.0 mph3.2 kmh 29.78 in1008.5 mb 0.00 in0.0 mm 0.00 in0.0 mm 0.00 in0.0 mm
02:20 AM 76.2°F24.6°C 63.6°F17.6°C 65% 1.0 mph SSE1.6 kmh SSE 4.0 mph6.4 kmh 29.78 in1008.5 mb 0.00 in0.0 mm 0.00 in0.0 mm 0.00 in0.0 mm
02:25 AM 76.2°F24.6°C 64.0°F17.8°C 66% 2.0 mph SSE3.2 kmh SSE 4.0 mph6.4 kmh 29.78 in1008.5 mb 0.00 in0.0 mm 0.00 in0.0 mm 0.00 in0.0 mm
02:30 AM 76.2°F24.6°C 64.0°F17.8°C 66% 1.0 mph SSE1.6 kmh SSE 4.0 mph6.4 kmh 29.78 in1008.5 mb 0.00 in0.0 mm 0.00 in0.0 mm 0.00 in0.0 mm
02:35 AM 76.2°F24.6°C 64.0°F17.8°C 66% 1.0 mph SSE1.6 kmh SSE 4.0 mph6.4 kmh 29.78 in1008.5 mb 0.00 in0.0 mm 0.00 in0.0 mm 0.00 in0.0 mm
02:40 AM 76.2°F24.6°C 64.0°F17.8°C 66% Calm Calm 2.0 mph3.2 kmh 29.78 in1008.5 mb 0.00 in0.0 mm 0.00 in0.0 mm 0.00 in0.0 mm
02:45 AM 76.1°F24.5°C 63.9°F17.7°C 66% 1.0 mph SSE1.6 kmh SSE 2.0 mph3.2 kmh 29.78 in1008.5 mb 0.00 in0.0 mm 0.00 in0.0 mm 0.00 in0.0 mm
02:50 AM 76.0°F24.4°C 63.8°F17.7°C 66% 1.0 mph SE1.6 kmh SE 4.0 mph6.4 kmh 29.78 in1008.5 mb 0.00 in0.0 mm 0.00 in0.0 mm 0.00 in0.0 mm
02:55 AM 76.0°F24.4°C 63.8°F17.7°C 66% 2.0 mph SE3.2 kmh SE 4.0 mph6.4 kmh 29.78 in1008.5 mb 0.00 in0.0 mm 0.00 in0.0 mm 0.00 in0.0 mm
03:00 AM 75.9°F24.4°C 64.2°F17.9°C 67% 1.0 mph SE1.6 kmh SE 3.0 mph4.8 kmh 29.78 in1008.5 mb 0.00 in0.0 mm 0.00 in0.0 mm 0.00 in0.0 mm
03:05 AM 75.8°F24.3°C 64.1°F17.8°C 67% 1.0 mph SE1.6 kmh SE 3.0 mph4.8 kmh 29.78 in1008.5 mb 0.00 in0.0 mm 0.00 in0.0 mm 0.00 in0.0 mm
03:10 AM 75.8°F24.3°C 64.1°F17.8°C 67% 1.0 mph SE1.6 kmh SE 3.0 mph4.8 kmh 29.78 in1008.5 mb 0.00 in0.0 mm 0.00 in0.0 mm 0.00 in0.0 mm
03:15 AM 75.8°F24.3°C 64.1°F17.8°C 67% 1.0 mph SE1.6 kmh SE 3.0 mph4.8 kmh 29.78 in1008.5 mb 0.00 in0.0 mm 0.00 in0.0 mm 0.00 in0.0 mm
03:20 AM 75.7°F24.3°C 64.0°F17.8°C 67% 1.0 mph SE1.6 kmh SE 4.0 mph6.4 kmh 29.78 in1008.5 mb 0.00 in0.0 mm 0.00 in0.0 mm 0.00 in0.0 mm
03:25 AM 75.6°F24.2°C 63.9°F17.7°C 67% 2.0 mph SSE3.2 kmh SSE 4.0 mph6.4 kmh 29.78 in1008.5 mb 0.00 in0.0 mm 0.00 in0.0 mm 0.00 in0.0 mm
03:30 AM 75.7°F24.3°C 64.0°F17.8°C 67% 2.0 mph SSE3.2 kmh SSE 5.0 mph8.0 kmh 29.78 in1008.5 mb 0.00 in0.0 mm 0.00 in0.0 mm 0.00 in0.0 mm
03:35 AM 75.6°F24.2°C 63.9°F17.7°C 67% 2.0 mph SE3.2 kmh SE 5.0 mph8.0 kmh 29.78 in1008.5 mb 0.00 in0.0 mm 0.00 in0.0 mm 0.00 in0.0 mm
03:40 AM 75.6°F24.2°C 63.9°F17.7°C 67% 2.0 mph SE3.2 kmh SE 4.0 mph6.4 kmh 29.78 in1008.5 mb 0.00 in0.0 mm 0.00 in0.0 mm 0.00 in0.0 mm
03:45 AM 75.6°F24.2°C 63.9°F17.7°C 67% 2.0 mph SE3.2 kmh SE 4.0 mph6.4 kmh 29.78 in1008.5 mb 0.00 in0.0 mm 0.00 in0.0 mm 0.00 in0.0 mm
03:50 AM 75.5°F24.2°C 63.8°F17.7°C 67% 1.0 mph SE1.6 kmh SE 3.0 mph4.8 kmh 29.78 in1008.5 mb 0.00 in0.0 mm 0.00 in0.0 mm 0.00 in0.0 mm
03:55 AM 75.5°F24.2°C 63.8°F17.7°C 67% Calm Calm 2.0 mph3.2 kmh 29.78 in1008.5 mb 0.00 in0.0 mm 0.00 in0.0 mm 0.00 in0.0 mm
04:00 AM 75.4°F24.1°C 63.7°F17.6°C 67% Calm Calm 1.0 mph1.6 kmh 29.78 in1008.5 mb 0.00 in0.0 mm 0.00 in0.0 mm 0.00 in0.0 mm
04:05 AM 75.3°F24.1°C 63.6°F17.6°C 67% Calm Calm 2.0 mph3.2 kmh 29.78 in1008.5 mb 0.00 in0.0 mm 0.00 in0.0 mm 0.00 in0.0 mm
04:10 AM 75.2°F24.0°C 63.9°F17.7°C 68% 1.0 mph SSE1.6 kmh SSE 4.0 mph6.4 kmh 29.78 in1008.5 mb 0.00 in0.0 mm 0.00 in0.0 mm 0.00 in0.0 mm
04:15 AM 75.1°F23.9°C 63.8°F17.7°C 68% 1.0 mph SSE1.6 kmh SSE 4.0 mph6.4 kmh 29.78 in1008.5 mb 0.00 in0.0 mm 0.00 in0.0 mm 0.00 in0.0 mm
04:20 AM 75.0°F23.9°C 63.7°F17.6°C 68% 1.0 mph SSE1.6 kmh SSE 4.0 mph6.4 kmh 29.78 in1008.5 mb 0.00 in0.0 mm 0.00 in0.0 mm 0.00 in0.0 mm
04:25 AM 74.9°F23.8°C 63.6°F17.6°C 68% 2.0 mph SSE3.2 kmh SSE 5.0 mph8.0 kmh 29.78 in1008.5 mb 0.00 in0.0 mm 0.00 in0.0 mm 0.00 in0.0 mm
04:30 AM 74.9°F23.8°C 63.6°F17.6°C 68% 2.0 mph SSE3.2 kmh SSE 5.0 mph8.0 kmh 29.78 in1008.5 mb 0.00 in0.0 mm 0.00 in0.0 mm 0.00 in0.0 mm
04:35 AM 74.9°F23.8°C 63.6°F17.6°C 68% 2.0 mph SSE3.2 kmh SSE 5.0 mph8.0 kmh 29.78 in1008.5 mb 0.00 in0.0 mm 0.00 in0.0 mm 0.00 in0.0 mm
04:40 AM 74.9°F23.8°C 63.6°F17.6°C 68% 2.0 mph SSE3.2 kmh SSE 4.0 mph6.4 kmh 29.78 in1008.5 mb 0.00 in0.0 mm 0.00 in0.0 mm 0.00 in0.0 mm
04:45 AM 74.9°F23.8°C 64.0°F17.8°C 69% 2.0 mph SSE3.2 kmh SSE 4.0 mph6.4 kmh 29.78 in1008.5 mb 0.00 in0.0 mm 0.00 in0.0 mm 0.00 in0.0 mm
04:50 AM 74.8°F23.8°C 63.9°F17.7°C 69% 1.0 mph S1.6 kmh S 4.0 mph6.4 kmh 29.78 in1008.5 mb 0.00 in0.0 mm 0.00 in0.0 mm 0.00 in0.0 mm
04:55 AM 74.8°F23.8°C 63.9°F17.7°C 69% 1.0 mph S1.6 kmh S 3.0 mph4.8 kmh 29.79 in1008.8 mb 0.00 in0.0 mm 0.00 in0.0 mm 0.00 in0.0 mm
05:00 AM 74.7°F23.7°C 63.9°F17.7°C 69% 1.0 mph S1.6 kmh S 4.0 mph6.4 kmh 29.79 in1008.8 mb 0.00 in0.0 mm 0.00 in0.0 mm 0.00 in0.0 mm
05:05 AM 74.6°F23.7°C 63.8°F17.7°C 69% 1.0 mph SSE1.6 kmh SSE 4.0 mph6.4 kmh 29.79 in1008.8 mb 0.00 in0.0 mm 0.00 in0.0 mm 0.00 in0.0 mm
05:10 AM 74.6°F23.7°C 63.8°F17.7°C 69% 1.0 mph SSE1.6 kmh SSE 2.0 mph3.2 kmh 29.79 in1008.8 mb 0.00 in0.0 mm 0.00 in0.0 mm 0.00 in0.0 mm
05:15 AM 74.6°F23.7°C 63.8°F17.7°C 69% 1.0 mph SSE1.6 kmh SSE 2.0 mph3.2 kmh 29.79 in1008.8 mb 0.00 in0.0 mm 0.00 in0.0 mm 0.00 in0.0 mm
05:20 AM 74.5°F23.6°C 63.2°F17.3°C 68% 1.0 mph SSE1.6 kmh SSE 4.0 mph6.4 kmh 29.79 in1008.8 mb 0.00 in0.0 mm 0.00 in0.0 mm 0.00 in0.0 mm
05:25 AM 74.5°F23.6°C 63.2°F17.3°C 68% 1.0 mph SE1.6 kmh SE 4.0 mph6.4 kmh 29.79 in1008.8 mb 0.00 in0.0 mm 0.00 in0.0 mm 0.00 in0.0 mm
05:30 AM 74.5°F23.6°C 63.2°F17.3°C 68% Calm Calm 3.0 mph4.8 kmh 29.79 in1008.8 mb 0.00 in0.0 mm 0.00 in0.0 mm 0.00 in0.0 mm
05:35 AM 74.4°F23.6°C 63.1°F17.3°C 68% 1.0 mph SE1.6 kmh SE 2.0 mph3.2 kmh 29.80 in1009.1 mb 0.00 in0.0 mm 0.00 in0.0 mm 0.00 in0.0 mm
05:40 AM 74.4°F23.6°C 63.1°F17.3°C 68% 1.0 mph SE1.6 kmh SE 3.0 mph4.8 kmh 29.80 in1009.1 mb 0.00 in0.0 mm 0.00 in0.0 mm 0.00 in0.0 mm
05:45 AM 74.3°F23.5°C 63.1°F17.3°C 68% 1.0 mph SE1.6 kmh SE 3.0 mph4.8 kmh 29.80 in1009.1 mb 0.00 in0.0 mm 0.00 in0.0 mm 0.00 in0.0 mm
05:50 AM 74.3°F23.5°C 63.1°F17.3°C 68% 2.0 mph SE3.2 kmh SE 5.0 mph8.0 kmh 29.80 in1009.1 mb 0.00 in0.0 mm 0.00 in0.0 mm 0.00 in0.0 mm
05:55 AM 74.5°F23.6°C 63.2°F17.3°C 68% 2.0 mph SE3.2 kmh SE 5.0 mph8.0 kmh 29.80 in1009.1 mb 0.00 in0.0 mm 0.00 in0.0 mm 0.00 in0.0 mm
06:00 AM 74.5°F23.6°C 63.2°F17.3°C 68% 1.0 mph SE1.6 kmh SE 3.0 mph4.8 kmh 29.80 in1009.1 mb 0.00 in0.0 mm 0.00 in0.0 mm 0.00 in0.0 mm
06:05 AM 74.6°F23.7°C 63.3°F17.4°C 68% 1.0 mph SE1.6 kmh SE 2.0 mph3.2 kmh 29.80 in1009.1 mb 0.00 in0.0 mm 0.00 in0.0 mm 0.00 in0.0 mm
06:10 AM 74.7°F23.7°C 63.4°F17.4°C 68% 1.0 mph SE1.6 kmh SE 3.0 mph4.8 kmh 29.80 in1009.1 mb 0.00 in0.0 mm 0.00 in0.0 mm 0.00 in0.0 mm
06:15 AM 74.9°F23.8°C 63.6°F17.6°C 68% 1.0 mph SE1.6 kmh SE 5.0 mph8.0 kmh 29.81 in1009.5 mb 0.00 in0.0 mm 0.00 in0.0 mm 0.00 in0.0 mm
06:20 AM 75.1°F23.9°C 63.4°F17.4°C 67% 2.0 mph SE3.2 kmh SE 5.0 mph8.0 kmh 29.81 in1009.5 mb 0.00 in0.0 mm 0.00 in0.0 mm 0.00 in0.0 mm
06:25 AM 75.3°F24.1°C 63.6°F17.6°C 67% 2.0 mph SE3.2 kmh SE 4.0 mph6.4 kmh 29.81 in1009.5 mb 0.00 in0.0 mm 0.00 in0.0 mm 0.00 in0.0 mm
06:30 AM 75.6°F24.2°C 63.4°F17.4°C 66% 3.0 mph SE4.8 kmh SE 6.0 mph9.7 kmh 29.81 in1009.5 mb 0.00 in0.0 mm 0.00 in0.0 mm 0.00 in0.0 mm
06:35 AM 75.8°F24.3°C 63.6°F17.6°C 66% 3.0 mph SSE4.8 kmh SSE 6.0 mph9.7 kmh 29.81 in1009.5 mb 0.00 in0.0 mm 0.00 in0.0 mm 0.00 in0.0 mm
06:40 AM 76.0°F24.4°C 63.4°F17.4°C 65% 2.0 mph S3.2 kmh S 6.0 mph9.7 kmh 29.81 in1009.5 mb 0.00 in0.0 mm 0.00 in0.0 mm 0.00 in0.0 mm
06:45 AM 76.3°F24.6°C 63.7°F17.6°C 65% 3.0 mph S4.8 kmh S 6.0 mph9.7 kmh 29.81 in1009.5 mb 0.00 in0.0 mm 0.00 in0.0 mm 0.00 in0.0 mm
06:50 AM 76.5°F24.7°C 63.9°F17.7°C 65% 2.0 mph S3.2 kmh S 6.0 mph9.7 kmh 29.81 in1009.5 mb 0.00 in0.0 mm 0.00 in0.0 mm 0.00 in0.0 mm
06:55 AM 76.9°F24.9°C 63.8°F17.7°C 64% 2.0 mph S3.2 kmh S 3.0 mph4.8 kmh 29.81 in1009.5 mb 0.00 in0.0 mm 0.00 in0.0 mm 0.00 in0.0 mm
07:00 AM 77.3°F25.2°C 63.7°F17.6°C 63% 2.0 mph S3.2 kmh S 4.0 mph6.4 kmh 29.81 in1009.5 mb 0.00 in0.0 mm 0.00 in0.0 mm 0.00 in0.0 mm
07:05 AM 77.8°F25.4°C 63.7°F17.6°C 62% 2.0 mph S3.2 kmh S 4.0 mph6.4 kmh 29.81 in1009.5 mb 0.00 in0.0 mm 0.00 in0.0 mm 0.00 in0.0 mm
07:10 AM 78.4°F25.8°C 63.8°F17.7°C 61% 1.0 mph S1.6 kmh S 3.0 mph4.8 kmh 29.81 in1009.5 mb 0.00 in0.0 mm 0.00 in0.0 mm 0.00 in0.0 mm
07:15 AM 79.1°F26.2°C 64.0°F17.8°C 60% 1.0 mph E1.6 kmh E 4.0 mph6.4 kmh 29.82 in1009.8 mb 0.00 in0.0 mm 0.00 in0.0 mm 0.00 in0.0 mm
07:20 AM 79.8°F26.6°C 64.2°F17.9°C 59% 1.0 mph NE1.6 kmh NE 4.0 mph6.4 kmh 29.82 in1009.8 mb 0.00 in0.0 mm 0.00 in0.0 mm 0.00 in0.0 mm
07:25 AM 80.3°F26.8°C 64.2°F17.9°C 58% 1.0 mph NE1.6 kmh NE 3.0 mph4.8 kmh 29.82 in1009.8 mb 0.00 in0.0 mm 0.00 in0.0 mm 0.00 in0.0 mm
07:30 AM 80.9°F27.2°C 64.7°F18.2°C 58% 1.0 mph NE1.6 kmh NE 3.0 mph4.8 kmh 29.81 in1009.5 mb 0.00 in0.0 mm 0.00 in0.0 mm 0.00 in0.0 mm
07:35 AM 81.4°F27.4°C 64.7°F18.2°C 57% 1.0 mph NE1.6 kmh NE 4.0 mph6.4 kmh 29.82 in1009.8 mb 0.00 in0.0 mm 0.00 in0.0 mm 0.00 in0.0 mm
07:40 AM 81.7°F27.6°C 64.5°F18.1°C 56% 2.0 mph NE3.2 kmh NE 4.0 mph6.4 kmh 29.82 in1009.8 mb 0.00 in0.0 mm 0.00 in0.0 mm 0.00 in0.0 mm
07:45 AM 82.1°F27.8°C 64.3°F17.9°C 55% 1.0 mph NE1.6 kmh NE 3.0 mph4.8 kmh 29.82 in1009.8 mb 0.00 in0.0 mm 0.00 in0.0 mm 0.00 in0.0 mm
07:50 AM 82.4°F28.0°C 64.1°F17.8°C 54% 2.0 mph NE3.2 kmh NE 3.0 mph4.8 kmh 29.82 in1009.8 mb 0.00 in0.0 mm 0.00 in0.0 mm 0.00 in0.0 mm
07:55 AM 82.7°F28.2°C 64.4°F18.0°C 54% 2.0 mph NE3.2 kmh NE 3.0 mph4.8 kmh 29.82 in1009.8 mb 0.00 in0.0 mm 0.00 in0.0 mm 0.00 in0.0 mm
08:00 AM 83.1°F28.4°C 64.2°F17.9°C 53% 2.0 mph NE3.2 kmh NE 3.0 mph4.8 kmh 29.81 in1009.5 mb 0.00 in0.0 mm 0.00 in0.0 mm 0.00 in0.0 mm
08:05 AM 83.4°F28.6°C 64.5°F18.1°C 53% 2.0 mph NE3.2 kmh NE 3.0 mph4.8 kmh 29.82 in1009.8 mb 0.00 in0.0 mm 0.00 in0.0 mm 0.00 in0.0 mm
08:10 AM 83.9°F28.8°C 64.4°F18.0°C 52% 1.0 mph NE1.6 kmh NE 3.0 mph4.8 kmh 29.82 in1009.8 mb 0.00 in0.0 mm 0.00 in0.0 mm 0.00 in0.0 mm
08:15 AM 84.5°F29.2°C 64.4°F18.0°C 51% 1.0 mph NE1.6 kmh NE 3.0 mph4.8 kmh 29.82 in1009.8 mb 0.00 in0.0 mm 0.00 in0.0 mm 0.00 in0.0 mm
08:20 AM 85.2°F29.6°C 64.5°F18.1°C 50% 1.0 mph NE1.6 kmh NE 3.0 mph4.8 kmh 29.82 in1009.8 mb 0.00 in0.0 mm 0.00 in0.0 mm 0.00 in0.0 mm
08:25 AM 85.7°F29.8°C 63.8°F17.7°C 48% 1.0 mph NE1.6 kmh NE 3.0 mph4.8 kmh 29.82 in1009.8 mb 0.00 in0.0 mm 0.00 in0.0 mm 0.00 in0.0 mm
08:30 AM 85.9°F29.9°C 63.9°F17.7°C 48% 2.0 mph NE3.2 kmh NE 4.0 mph6.4 kmh 29.81 in1009.5 mb 0.00 in0.0 mm 0.00 in0.0 mm 0.00 in0.0 mm
08:35 AM 86.0°F30.0°C 64.0°F17.8°C 48% 2.0 mph NE3.2 kmh NE 4.0 mph6.4 kmh 29.82 in1009.8 mb 0.00 in0.0 mm 0.00 in0.0 mm 0.00 in0.0 mm
08:40 AM 86.3°F30.2°C 63.7°F17.6°C 47% 2.0 mph ENE3.2 kmh ENE 4.0 mph6.4 kmh 29.82 in1009.8 mb 0.00 in0.0 mm 0.00 in0.0 mm 0.00 in0.0 mm
08:45 AM 86.9°F30.5°C 63.6°F17.6°C 46% 1.0 mph ENE1.6 kmh ENE 3.0 mph4.8 kmh 29.81 in1009.5 mb 0.00 in0.0 mm 0.00 in0.0 mm 0.00 in0.0 mm
08:50 AM 87.6°F30.9°C 63.6°F17.6°C 45% 2.0 mph SSE3.2 kmh SSE 4.0 mph6.4 kmh 29.81 in1009.5 mb 0.00 in0.0 mm 0.00 in0.0 mm 0.00 in0.0 mm
08:55 AM 88.2°F31.2°C 63.5°F17.5°C 44% 2.0 mph SSE3.2 kmh SSE 4.0 mph6.4 kmh 29.81 in1009.5 mb 0.00 in0.0 mm 0.00 in0.0 mm 0.00 in0.0 mm
09:00 AM 88.8°F31.6°C 63.4°F17.4°C 43% 2.0 mph SSE3.2 kmh SSE 4.0 mph6.4 kmh 29.81 in1009.5 mb 0.00 in0.0 mm 0.00 in0.0 mm 0.00 in0.0 mm
09:05 AM 89.2°F31.8°C 63.1°F17.3°C 42% 2.0 mph S3.2 kmh S 4.0 mph6.4 kmh 29.81 in1009.5 mb 0.00 in0.0 mm 0.00 in0.0 mm 0.00 in0.0 mm
09:10 AM 89.4°F31.9°C 63.3°F17.4°C 42% 2.0 mph S3.2 kmh S 3.0 mph4.8 kmh 29.81 in1009.5 mb 0.00 in0.0 mm 0.00 in0.0 mm 0.00 in0.0 mm
09:15 AM 89.7°F32.1°C 62.2°F16.8°C 40% 2.0 mph SSW3.2 kmh SSW 4.0 mph6.4 kmh 29.80 in1009.1 mb 0.00 in0.0 mm 0.00 in0.0 mm 0.00 in0.0 mm
09:20 AM 89.7°F32.1°C 61.5°F16.4°C 39% 3.0 mph WSW4.8 kmh WSW 7.0 mph11.3 kmh 29.80 in1009.1 mb 0.00 in0.0 mm 0.00 in0.0 mm 0.00 in0.0 mm
09:25 AM 89.6°F32.0°C 61.4°F16.3°C 39% 2.0 mph WSW3.2 kmh WSW 7.0 mph11.3 kmh 29.80 in1009.1 mb 0.00 in0.0 mm 0.00 in0.0 mm 0.00 in0.0 mm
09:30 AM 89.9°F32.2°C 62.3°F16.8°C 40% 1.0 mph WSW1.6 kmh WSW 4.0 mph6.4 kmh 29.80 in1009.1 mb 0.00 in0.0 mm 0.00 in0.0 mm 0.00 in0.0 mm
09:35 AM 89.8°F32.1°C 61.5°F16.4°C 39% 2.0 mph WSW3.2 kmh WSW 7.0 mph11.3 kmh 29.81 in1009.5 mb 0.00 in0.0 mm 0.00 in0.0 mm 0.00 in0.0 mm
09:40 AM 89.9°F32.2°C 61.6°F16.4°C 39% 3.0 mph WSW4.8 kmh WSW 7.0 mph11.3 kmh 29.81 in1009.5 mb 0.00 in0.0 mm 0.00 in0.0 mm 0.00 in0.0 mm
09:45 AM 90.5°F32.5°C 62.2°F16.8°C 39% 2.0 mph SW3.2 kmh SW 7.0 mph11.3 kmh 29.81 in1009.5 mb 0.00 in0.0 mm 0.00 in0.0 mm 0.00 in0.0 mm
09:50 AM 91.0°F32.8°C 61.9°F16.6°C 38% 2.0 mph SSW3.2 kmh SSW 7.0 mph11.3 kmh 29.81 in1009.5 mb 0.00 in0.0 mm 0.00 in0.0 mm 0.00 in0.0 mm
09:55 AM 90.6°F32.6°C 61.5°F16.4°C 38% 3.0 mph SW4.8 kmh SW 7.0 mph11.3 kmh 29.81 in1009.5 mb 0.00 in0.0 mm 0.00 in0.0 mm 0.00 in0.0 mm
10:00 AM 90.6°F32.6°C 61.5°F16.4°C 38% 3.0 mph W4.8 kmh W 7.0 mph11.3 kmh 29.81 in1009.5 mb 0.00 in0.0 mm 0.00 in0.0 mm 0.00 in0.0 mm
10:05 AM 90.5°F32.5°C 61.4°F16.3°C 38% 2.0 mph NW3.2 kmh NW 5.0 mph8.0 kmh 29.80 in1009.1 mb 0.00 in0.0 mm 0.00 in0.0 mm 0.00 in0.0 mm
10:10 AM 90.7°F32.6°C 61.6°F16.4°C 38% 2.0 mph WNW3.2 kmh WNW 6.0 mph9.7 kmh 29.80 in1009.1 mb 0.00 in0.0 mm 0.00 in0.0 mm 0.00 in0.0 mm
10:15 AM 91.1°F32.8°C 62.0°F16.7°C 38% 2.0 mph W3.2 kmh W 9.0 mph14.5 kmh 29.80 in1009.1 mb 0.00 in0.0 mm 0.00 in0.0 mm 0.00 in0.0 mm
10:20 AM 91.4°F33.0°C 62.2°F16.8°C 38% 3.0 mph W4.8 kmh W 9.0 mph14.5 kmh 29.80 in1009.1 mb 0.00 in0.0 mm 0.00 in0.0 mm 0.00 in0.0 mm
10:25 AM 91.3°F32.9°C 61.4°F16.3°C 37% 3.0 mph W4.8 kmh W 6.0 mph9.7 kmh 29.80 in1009.1 mb 0.00 in0.0 mm 0.00 in0.0 mm 0.00 in0.0 mm
10:35 AM 91.8°F33.2°C 61.8°F16.6°C 37% 3.0 mph WNW4.8 kmh WNW 7.0 mph11.3 kmh 29.80 in1009.1 mb 0.00 in0.0 mm 0.00 in0.0 mm 0.00 in0.0 mm
10:40 AM 92.0°F33.3°C 62.0°F16.7°C 37% 3.0 mph W4.8 kmh W 8.0 mph12.9 kmh 29.80 in1009.1 mb 0.00 in0.0 mm 0.00 in0.0 mm 0.00 in0.0 mm
10:45 AM 92.3°F33.5°C 61.5°F16.4°C 36% 3.0 mph W4.8 kmh W 8.0 mph12.9 kmh 29.80 in1009.1 mb 0.00 in0.0 mm 0.00 in0.0 mm 0.00 in0.0 mm
10:50 AM 92.1°F33.4°C 61.3°F16.3°C 36% 4.0 mph W6.4 kmh W 8.0 mph12.9 kmh 29.80 in1009.1 mb 0.00 in0.0 mm 0.00 in0.0 mm 0.00 in0.0 mm
10:55 AM 92.2°F33.4°C 62.2°F16.8°C 37% 4.0 mph W6.4 kmh W 8.0 mph12.9 kmh 29.80 in1009.1 mb 0.00 in0.0 mm 0.00 in0.0 mm 0.00 in0.0 mm
11:00 AM 92.6°F33.7°C 61.7°F16.5°C 36% 3.0 mph W4.8 kmh W 10.0 mph16.1 kmh 29.79 in1008.8 mb 0.00 in0.0 mm 0.00 in0.0 mm 0.00 in0.0 mm
11:05 AM 92.5°F33.6°C 61.7°F16.5°C 36% 4.0 mph W6.4 kmh W 10.0 mph16.1 kmh 29.79 in1008.8 mb 0.00 in0.0 mm 0.00 in0.0 mm 0.00 in0.0 mm
11:10 AM 93.3°F34.1°C 61.6°F16.4°C 35% 3.0 mph WSW4.8 kmh WSW 8.0 mph12.9 kmh 29.79 in1008.8 mb 0.00 in0.0 mm 0.00 in0.0 mm 0.00 in0.0 mm
11:15 AM 93.5°F34.2°C 61.7°F16.5°C 35% 3.0 mph WNW4.8 kmh WNW 8.0 mph12.9 kmh 29.79 in1008.8 mb 0.00 in0.0 mm 0.00 in0.0 mm 0.00 in0.0 mm
11:20 AM 93.8°F34.3°C 61.2°F16.2°C 34% 3.0 mph NW4.8 kmh NW 8.0 mph12.9 kmh 29.79 in1008.8 mb 0.00 in0.0 mm 0.00 in0.0 mm 0.00 in0.0 mm
11:25 AM 94.2°F34.6°C 60.7°F15.9°C 33% 3.0 mph WNW4.8 kmh WNW 8.0 mph12.9 kmh 29.78 in1008.5 mb 0.00 in0.0 mm 0.00 in0.0 mm 0.00 in0.0 mm
11:30 AM 94.8°F34.9°C 61.2°F16.2°C 33% 2.0 mph WSW3.2 kmh WSW 6.0 mph9.7 kmh 29.78 in1008.5 mb 0.00 in0.0 mm 0.00 in0.0 mm 0.00 in0.0 mm
11:35 AM 95.4°F35.2°C 61.7°F16.5°C 33% 2.0 mph W3.2 kmh W 6.0 mph9.7 kmh 29.78 in1008.5 mb 0.00 in0.0 mm 0.00 in0.0 mm 0.00 in0.0 mm
11:40 AM 96.1°F35.6°C 60.6°F15.9°C 31% 2.0 mph NW3.2 kmh NW 10.0 mph16.1 kmh 29.77 in1008.1 mb 0.00 in0.0 mm 0.00 in0.0 mm 0.00 in0.0 mm
11:45 AM 95.9°F35.5°C 59.5°F15.3°C 30% 4.0 mph WNW6.4 kmh WNW 10.0 mph16.1 kmh 29.77 in1008.1 mb 0.00 in0.0 mm 0.00 in0.0 mm 0.00 in0.0 mm
11:50 AM 95.8°F35.4°C 59.4°F15.2°C 30% 4.0 mph W6.4 kmh W 10.0 mph16.1 kmh 29.77 in1008.1 mb 0.00 in0.0 mm 0.00 in0.0 mm 0.00 in0.0 mm
11:55 AM 95.9°F35.5°C 58.5°F14.7°C 29% 4.0 mph WSW6.4 kmh WSW 10.0 mph16.1 kmh 29.77 in1008.1 mb 0.00 in0.0 mm 0.00 in0.0 mm 0.00 in0.0 mm
12:00 PM 95.8°F35.4°C 60.3°F15.7°C 31% 4.0 mph WSW6.4 kmh WSW 10.0 mph16.1 kmh 29.77 in1008.1 mb 0.00 in0.0 mm 0.00 in0.0 mm 0.00 in0.0 mm
12:05 PM 95.9°F35.5°C 58.5°F14.7°C 29% 4.0 mph WNW6.4 kmh WNW 9.0 mph14.5 kmh 29.76 in1007.8 mb 0.00 in0.0 mm 0.00 in0.0 mm 0.00 in0.0 mm
12:10 PM 95.9°F35.5°C 59.5°F15.3°C 30% 4.0 mph WNW6.4 kmh WNW 9.0 mph14.5 kmh 29.76 in1007.8 mb 0.00 in0.0 mm 0.00 in0.0 mm 0.00 in0.0 mm
12:15 PM 96.2°F35.7°C 58.8°F14.9°C 29% 4.0 mph W6.4 kmh W 9.0 mph14.5 kmh 29.76 in1007.8 mb 0.00 in0.0 mm 0.00 in0.0 mm 0.00 in0.0 mm
12:20 PM 96.5°F35.8°C 59.0°F15.0°C 29% 4.0 mph W6.4 kmh W 11.0 mph17.7 kmh 29.75 in1007.5 mb 0.00 in0.0 mm 0.00 in0.0 mm 0.00 in0.0 mm
12:25 PM 96.3°F35.7°C 58.9°F14.9°C 29% 5.0 mph W8.0 kmh W 11.0 mph17.7 kmh 29.75 in1007.5 mb 0.00 in0.0 mm 0.00 in0.0 mm 0.00 in0.0 mm
12:30 PM 96.4°F35.8°C 59.0°F15.0°C 29% 5.0 mph WSW8.0 kmh WSW 10.0 mph16.1 kmh 29.75 in1007.5 mb 0.00 in0.0 mm 0.00 in0.0 mm 0.00 in0.0 mm
12:35 PM 97.2°F36.2°C 59.6°F15.3°C 29% 4.0 mph WSW6.4 kmh WSW 10.0 mph16.1 kmh 29.75 in1007.5 mb 0.00 in0.0 mm 0.00 in0.0 mm 0.00 in0.0 mm
12:40 PM 97.6°F36.4°C 58.0°F14.4°C 27% 4.0 mph WSW6.4 kmh WSW 12.0 mph19.3 kmh 29.75 in1007.5 mb 0.00 in0.0 mm 0.00 in0.0 mm 0.00 in0.0 mm
12:45 PM 97.4°F36.3°C 57.8°F14.3°C 27% 6.0 mph WSW9.7 kmh WSW 12.0 mph19.3 kmh 29.75 in1007.5 mb 0.00 in0.0 mm 0.00 in0.0 mm 0.00 in0.0 mm
12:50 PM 97.2°F36.2°C 57.6°F14.2°C 27% 6.0 mph W9.7 kmh W 11.0 mph17.7 kmh 29.74 in1007.1 mb 0.00 in0.0 mm 0.00 in0.0 mm 0.00 in0.0 mm
12:55 PM 97.2°F36.2°C 57.6°F14.2°C 27% 5.0 mph W8.0 kmh W 11.0 mph17.7 kmh 29.74 in1007.1 mb 0.00 in0.0 mm 0.00 in0.0 mm 0.00 in0.0 mm
01:00 PM 97.3°F36.3°C 58.7°F14.8°C 28% 5.0 mph W8.0 kmh W 10.0 mph16.1 kmh 29.74 in1007.1 mb 0.00 in0.0 mm 0.00 in0.0 mm 0.00 in0.0 mm
01:05 PM 97.7°F36.5°C 58.1°F14.5°C 27% 4.0 mph WNW6.4 kmh WNW 10.0 mph16.1 kmh 29.74 in1007.1 mb 0.00 in0.0 mm 0.00 in0.0 mm 0.00 in0.0 mm
01:10 PM 97.8°F36.6°C 58.2°F14.6°C 27% 5.0 mph WNW8.0 kmh WNW 12.0 mph19.3 kmh 29.74 in1007.1 mb 0.00 in0.0 mm 0.00 in0.0 mm 0.00 in0.0 mm
01:15 PM 98.0°F36.7°C 58.3°F14.6°C 27% 5.0 mph W8.0 kmh W 12.0 mph19.3 kmh 29.74 in1007.1 mb 0.00 in0.0 mm 0.00 in0.0 mm 0.00 in0.0 mm
01:20 PM 98.1°F36.7°C 58.4°F14.7°C 27% 4.0 mph WNW6.4 kmh WNW 10.0 mph16.1 kmh 29.74 in1007.1 mb 0.00 in0.0 mm 0.00 in0.0 mm 0.00 in0.0 mm
01:25 PM 98.1°F36.7°C 58.4°F14.7°C 27% 5.0 mph W8.0 kmh W 10.0 mph16.1 kmh 29.74 in1007.1 mb 0.00 in0.0 mm 0.00 in0.0 mm 0.00 in0.0 mm
01:30 PM 98.2°F36.8°C 58.5°F14.7°C 27% 6.0 mph W9.7 kmh W 10.0 mph16.1 kmh 29.73 in1006.8 mb 0.00 in0.0 mm 0.00 in0.0 mm 0.00 in0.0 mm
01:35 PM 98.1°F36.7°C 58.4°F14.7°C 27% 6.0 mph NW9.7 kmh NW 13.0 mph20.9 kmh 29.73 in1006.8 mb 0.00 in0.0 mm 0.00 in0.0 mm 0.00 in0.0 mm
01:40 PM 98.3°F36.8°C 58.6°F14.8°C 27% 5.0 mph NW8.0 kmh NW 13.0 mph20.9 kmh 29.73 in1006.8 mb 0.00 in0.0 mm 0.00 in0.0 mm 0.00 in0.0 mm
01:45 PM 98.0°F36.7°C 57.3°F14.1°C 26% 5.0 mph W8.0 kmh W 11.0 mph17.7 kmh 29.73 in1006.8 mb 0.00 in0.0 mm 0.00 in0.0 mm 0.00 in0.0 mm
01:50 PM 98.2°F36.8°C 58.5°F14.7°C 27% 5.0 mph W8.0 kmh W 12.0 mph19.3 kmh 29.73 in1006.8 mb 0.00 in0.0 mm 0.00 in0.0 mm 0.00 in0.0 mm
01:55 PM 98.4°F36.9°C 58.7°F14.8°C 27% 5.0 mph W8.0 kmh W 12.0 mph19.3 kmh 29.72 in1006.4 mb 0.00 in0.0 mm 0.00 in0.0 mm 0.00 in0.0 mm
02:00 PM 98.7°F37.1°C 57.9°F14.4°C 26% 5.0 mph WNW8.0 kmh WNW 11.0 mph17.7 kmh 29.72 in1006.4 mb 0.00 in0.0 mm 0.00 in0.0 mm 0.00 in0.0 mm
02:05 PM 98.7°F37.1°C 58.9°F14.9°C 27% 5.0 mph W8.0 kmh W 11.0 mph17.7 kmh 29.72 in1006.4 mb 0.00 in0.0 mm 0.00 in0.0 mm 0.00 in0.0 mm
02:10 PM 98.9°F37.2°C 59.1°F15.1°C 27% 5.0 mph WSW8.0 kmh WSW 10.0 mph16.1 kmh 29.71 in1006.1 mb 0.00 in0.0 mm 0.00 in0.0 mm 0.00 in0.0 mm
02:15 PM 99.4°F37.4°C 58.5°F14.7°C 26% 5.0 mph W8.0 kmh W 10.0 mph16.1 kmh 29.71 in1006.1 mb 0.00 in0.0 mm 0.00 in0.0 mm 0.00 in0.0 mm
02:20 PM 99.4°F37.4°C 58.5°F14.7°C 26% 5.0 mph W8.0 kmh W 10.0 mph16.1 kmh 29.71 in1006.1 mb 0.00 in0.0 mm 0.00 in0.0 mm 0.00 in0.0 mm
02:25 PM 99.6°F37.6°C 58.6°F14.8°C 26% 5.0 mph W8.0 kmh W 10.0 mph16.1 kmh 29.71 in1006.1 mb 0.00 in0.0 mm 0.00 in0.0 mm 0.00 in0.0 mm
02:30 PM 99.4°F37.4°C 58.5°F14.7°C 26% 6.0 mph WSW9.7 kmh WSW 10.0 mph16.1 kmh 29.71 in1006.1 mb 0.00 in0.0 mm 0.00 in0.0 mm 0.00 in0.0 mm
02:35 PM 99.3°F37.4°C 58.4°F14.7°C 26% 6.0 mph WSW9.7 kmh WSW 10.0 mph16.1 kmh 29.71 in1006.1 mb 0.00 in0.0 mm 0.00 in0.0 mm 0.00 in0.0 mm
02:40 PM 99.6°F37.6°C 58.6°F14.8°C 26% 4.0 mph WSW6.4 kmh WSW 9.0 mph14.5 kmh 29.70 in1005.8 mb 0.00 in0.0 mm 0.00 in0.0 mm 0.00 in0.0 mm
02:45 PM 100.1°F37.8°C 59.0°F15.0°C 26% 3.0 mph W4.8 kmh W 11.0 mph17.7 kmh 29.70 in1005.8 mb 0.00 in0.0 mm 0.00 in0.0 mm 0.00 in0.0 mm
02:50 PM 100.0°F37.8°C 59.0°F15.0°C 26% 5.0 mph WSW8.0 kmh WSW 11.0 mph17.7 kmh 29.69 in1005.4 mb 0.00 in0.0 mm 0.00 in0.0 mm 0.00 in0.0 mm
02:55 PM 100.0°F37.8°C 59.0°F15.0°C 26% 6.0 mph WSW9.7 kmh WSW 11.0 mph17.7 kmh 29.69 in1005.4 mb 0.00 in0.0 mm 0.00 in0.0 mm 0.00 in0.0 mm
03:00 PM 100.0°F37.8°C 59.0°F15.0°C 26% 5.0 mph W8.0 kmh W 11.0 mph17.7 kmh 29.69 in1005.4 mb 0.00 in0.0 mm 0.00 in0.0 mm 0.00 in0.0 mm
03:05 PM 100.0°F37.8°C 59.0°F15.0°C 26% 5.0 mph NW8.0 kmh NW 13.0 mph20.9 kmh 29.69 in1005.4 mb 0.00 in0.0 mm 0.00 in0.0 mm 0.00 in0.0 mm
03:10 PM 99.6°F37.6°C 58.6°F14.8°C 26% 6.0 mph NW9.7 kmh NW 13.0 mph20.9 kmh 29.68 in1005.1 mb 0.00 in0.0 mm 0.00 in0.0 mm 0.00 in0.0 mm
03:15 PM 99.6°F37.6°C 58.6°F14.8°C 26% 5.0 mph NW8.0 kmh NW 12.0 mph19.3 kmh 29.68 in1005.1 mb 0.00 in0.0 mm 0.00 in0.0 mm 0.00 in0.0 mm
03:20 PM 99.5°F37.5°C 58.5°F14.7°C 26% 6.0 mph W9.7 kmh W 12.0 mph19.3 kmh 29.68 in1005.1 mb 0.00 in0.0 mm 0.00 in0.0 mm 0.00 in0.0 mm
03:25 PM 99.6°F37.6°C 58.6°F14.8°C 26% 5.0 mph WSW8.0 kmh WSW 10.0 mph16.1 kmh 29.68 in1005.1 mb 0.00 in0.0 mm 0.00 in0.0 mm 0.00 in0.0 mm
03:30 PM 99.9°F37.7°C 58.9°F14.9°C 26% 5.0 mph WSW8.0 kmh WSW 11.0 mph17.7 kmh 29.68 in1005.1 mb 0.00 in0.0 mm 0.00 in0.0 mm 0.00 in0.0 mm
03:35 PM 99.9°F37.7°C 58.9°F14.9°C 26% 5.0 mph W8.0 kmh W 14.0 mph22.5 kmh 29.68 in1005.1 mb 0.00 in0.0 mm 0.00 in0.0 mm 0.00 in0.0 mm
03:40 PM 99.7°F37.6°C 58.7°F14.8°C 26% 6.0 mph NW9.7 kmh NW 14.0 mph22.5 kmh 29.67 in1004.7 mb 0.00 in0.0 mm 0.00 in0.0 mm 0.00 in0.0 mm
03:45 PM 99.2°F37.3°C 59.3°F15.2°C 27% 6.0 mph NW9.7 kmh NW 12.0 mph19.3 kmh 29.67 in1004.7 mb 0.00 in0.0 mm 0.00 in0.0 mm 0.00 in0.0 mm
03:50 PM 99.3°F37.4°C 58.4°F14.7°C 26% 6.0 mph WNW9.7 kmh WNW 12.0 mph19.3 kmh 29.67 in1004.7 mb 0.00 in0.0 mm 0.00 in0.0 mm 0.00 in0.0 mm
03:55 PM 99.4°F37.4°C 58.5°F14.7°C 26% 5.0 mph WNW8.0 kmh WNW 10.0 mph16.1 kmh 29.67 in1004.7 mb 0.00 in0.0 mm 0.00 in0.0 mm 0.00 in0.0 mm
04:00 PM 99.5°F37.5°C 58.5°F14.7°C 26% 6.0 mph WNW9.7 kmh WNW 11.0 mph17.7 kmh 29.67 in1004.7 mb 0.00 in0.0 mm 0.00 in0.0 mm 0.00 in0.0 mm
04:05 PM 99.6°F37.6°C 58.6°F14.8°C 26% 6.0 mph W9.7 kmh W 12.0 mph19.3 kmh 29.67 in1004.7 mb 0.00 in0.0 mm 0.00 in0.0 mm 0.00 in0.0 mm
04:10 PM 99.6°F37.6°C 58.6°F14.8°C 26% 6.0 mph W9.7 kmh W 14.0 mph22.5 kmh 29.66 in1004.4 mb 0.00 in0.0 mm 0.00 in0.0 mm 0.00 in0.0 mm
04:15 PM 99.4°F37.4°C 58.5°F14.7°C 26% 6.0 mph W9.7 kmh W 14.0 mph22.5 kmh 29.66 in1004.4 mb 0.00 in0.0 mm 0.00 in0.0 mm 0.00 in0.0 mm
04:20 PM 99.4°F37.4°C 58.5°F14.7°C 26% 6.0 mph W9.7 kmh W 12.0 mph19.3 kmh 29.66 in1004.4 mb 0.00 in0.0 mm 0.00 in0.0 mm 0.00 in0.0 mm
04:25 PM 99.4°F37.4°C 58.5°F14.7°C 26% 6.0 mph W9.7 kmh W 13.0 mph20.9 kmh 29.66 in1004.4 mb 0.00 in0.0 mm 0.00 in0.0 mm 0.00 in0.0 mm
04:30 PM 99.5°F37.5°C 58.5°F14.7°C 26% 6.0 mph WNW9.7 kmh WNW 13.0 mph20.9 kmh 29.66 in1004.4 mb 0.00 in0.0 mm 0.00 in0.0 mm 0.00 in0.0 mm
04:35 PM 99.3°F37.4°C 58.4°F14.7°C 26% 7.0 mph WNW11.3 kmh WNW 13.0 mph20.9 kmh 29.66 in1004.4 mb 0.00 in0.0 mm 0.00 in0.0 mm 0.00 in0.0 mm
04:40 PM 99.1°F37.3°C 58.2°F14.6°C 26% 7.0 mph WNW11.3 kmh WNW 13.0 mph20.9 kmh 29.66 in1004.4 mb 0.00 in0.0 mm 0.00 in0.0 mm 0.00 in0.0 mm
04:45 PM 99.0°F37.2°C 58.1°F14.5°C 26% 6.0 mph WNW9.7 kmh WNW 12.0 mph19.3 kmh 29.66 in1004.4 mb 0.00 in0.0 mm 0.00 in0.0 mm 0.00 in0.0 mm
04:50 PM 99.0°F37.2°C 58.1°F14.5°C 26% 6.0 mph NW9.7 kmh NW 12.0 mph19.3 kmh 29.65 in1004.1 mb 0.00 in0.0 mm 0.00 in0.0 mm 0.00 in0.0 mm
04:55 PM 99.0°F37.2°C 58.1°F14.5°C 26% 6.0 mph WNW9.7 kmh WNW 14.0 mph22.5 kmh 29.65 in1004.1 mb 0.00 in0.0 mm 0.00 in0.0 mm 0.00 in0.0 mm
05:00 PM 99.0°F37.2°C 58.1°F14.5°C 26% 7.0 mph WNW11.3 kmh WNW 14.0 mph22.5 kmh 29.65 in1004.1 mb 0.00 in0.0 mm 0.00 in0.0 mm 0.00 in0.0 mm
05:05 PM 98.9°F37.2°C 58.0°F14.4°C 26% 7.0 mph WNW11.3 kmh WNW 13.0 mph20.9 kmh 29.65 in1004.1 mb 0.00 in0.0 mm 0.00 in0.0 mm 0.00 in0.0 mm
05:10 PM 98.8°F37.1°C 58.0°F14.4°C 26% 6.0 mph WNW9.7 kmh WNW 12.0 mph19.3 kmh 29.65 in1004.1 mb 0.00 in0.0 mm 0.00 in0.0 mm 0.00 in0.0 mm
05:15 PM 98.7°F37.1°C 57.9°F14.4°C 26% 7.0 mph W11.3 kmh W 12.0 mph19.3 kmh 29.65 in1004.1 mb 0.00 in0.0 mm 0.00 in0.0 mm 0.00 in0.0 mm
05:20 PM 98.4°F36.9°C 57.6°F14.2°C 26% 8.0 mph W12.9 kmh W 13.0 mph20.9 kmh 29.64 in1003.7 mb 0.00 in0.0 mm 0.00 in0.0 mm 0.00 in0.0 mm
05:25 PM 98.3°F36.8°C 58.6°F14.8°C 27% 7.0 mph W11.3 kmh W 13.0 mph20.9 kmh 29.64 in1003.7 mb 0.00 in0.0 mm 0.00 in0.0 mm 0.00 in0.0 mm
05:30 PM 98.3°F36.8°C 57.5°F14.2°C 26% 6.0 mph W9.7 kmh W 12.0 mph19.3 kmh 29.64 in1003.7 mb 0.00 in0.0 mm 0.00 in0.0 mm 0.00 in0.0 mm
05:35 PM 98.2°F36.8°C 57.4°F14.1°C 26% 6.0 mph WNW9.7 kmh WNW 11.0 mph17.7 kmh 29.64 in1003.7 mb 0.00 in0.0 mm 0.00 in0.0 mm 0.00 in0.0 mm
05:40 PM 98.2°F36.8°C 58.5°F14.7°C 27% 5.0 mph WNW8.0 kmh WNW 10.0 mph16.1 kmh 29.64 in1003.7 mb 0.00 in0.0 mm 0.00 in0.0 mm 0.00 in0.0 mm
05:45 PM 98.2°F36.8°C 57.4°F14.1°C 26% 5.0 mph W8.0 kmh W 10.0 mph16.1 kmh 29.64 in1003.7 mb 0.00 in0.0 mm 0.00 in0.0 mm 0.00 in0.0 mm
05:50 PM 98.0°F36.7°C 57.3°F14.1°C 26% 7.0 mph WNW11.3 kmh WNW 13.0 mph20.9 kmh 29.64 in1003.7 mb 0.00 in0.0 mm 0.00 in0.0 mm 0.00 in0.0 mm
05:55 PM 97.8°F36.6°C 57.1°F13.9°C 26% 6.0 mph W9.7 kmh W 13.0 mph20.9 kmh 29.64 in1003.7 mb 0.00 in0.0 mm 0.00 in0.0 mm 0.00 in0.0 mm
06:00 PM 97.6°F36.4°C 56.9°F13.8°C 26% 6.0 mph W9.7 kmh W 12.0 mph19.3 kmh 29.65 in1004.1 mb 0.00 in0.0 mm 0.00 in0.0 mm 0.00 in0.0 mm
06:05 PM 97.4°F36.3°C 56.8°F13.8°C 26% 7.0 mph W11.3 kmh W 13.0 mph20.9 kmh 29.65 in1004.1 mb 0.00 in0.0 mm 0.00 in0.0 mm 0.00 in0.0 mm
06:10 PM 97.1°F36.2°C 57.6°F14.2°C 27% 7.0 mph W11.3 kmh W 13.0 mph20.9 kmh 29.64 in1003.7 mb 0.00 in0.0 mm 0.00 in0.0 mm 0.00 in0.0 mm
06:15 PM 97.0°F36.1°C 57.5°F14.2°C 27% 6.0 mph W9.7 kmh W 12.0 mph19.3 kmh 29.64 in1003.7 mb 0.00 in0.0 mm 0.00 in0.0 mm 0.00 in0.0 mm
06:20 PM 96.9°F36.1°C 57.4°F14.1°C 27% 5.0 mph W8.0 kmh W 10.0 mph16.1 kmh 29.64 in1003.7 mb 0.00 in0.0 mm 0.00 in0.0 mm 0.00 in0.0 mm
06:25 PM 96.7°F35.9°C 57.2°F14.0°C 27% 6.0 mph W9.7 kmh W 14.0 mph22.5 kmh 29.64 in1003.7 mb 0.00 in0.0 mm 0.00 in0.0 mm 0.00 in0.0 mm
06:30 PM 96.5°F35.8°C 57.1°F13.9°C 27% 7.0 mph W11.3 kmh W 14.0 mph22.5 kmh 29.64 in1003.7 mb 0.00 in0.0 mm 0.00 in0.0 mm 0.00 in0.0 mm
06:35 PM 96.3°F35.7°C 56.9°F13.8°C 27% 6.0 mph W9.7 kmh W 13.0 mph20.9 kmh 29.64 in1003.7 mb 0.00 in0.0 mm 0.00 in0.0 mm 0.00 in0.0 mm
06:40 PM 96.1°F35.6°C 56.7°F13.7°C 27% 5.0 mph WNW8.0 kmh WNW 11.0 mph17.7 kmh 29.64 in1003.7 mb 0.00 in0.0 mm 0.00 in0.0 mm 0.00 in0.0 mm
06:45 PM 96.0°F35.6°C 56.6°F13.7°C 27% 5.0 mph W8.0 kmh W 10.0 mph16.1 kmh 29.65 in1004.1 mb 0.00 in0.0 mm 0.00 in0.0 mm 0.00 in0.0 mm
06:50 PM 95.7°F35.4°C 57.4°F14.1°C 28% 6.0 mph WNW9.7 kmh WNW 12.0 mph19.3 kmh 29.65 in1004.1 mb 0.00 in0.0 mm 0.00 in0.0 mm 0.00 in0.0 mm
06:55 PM 95.4°F35.2°C 57.1°F13.9°C 28% 5.0 mph W8.0 kmh W 12.0 mph19.3 kmh 29.66 in1004.4 mb 0.00 in0.0 mm 0.00 in0.0 mm 0.00 in0.0 mm
07:00 PM 95.2°F35.1°C 57.0°F13.9°C 28% 4.0 mph W6.4 kmh W 9.0 mph14.5 kmh 29.66 in1004.4 mb 0.00 in0.0 mm 0.00 in0.0 mm 0.00 in0.0 mm
07:05 PM 94.9°F34.9°C 56.7°F13.7°C 28% 5.0 mph W8.0 kmh W 11.0 mph17.7 kmh 29.66 in1004.4 mb 0.00 in0.0 mm 0.00 in0.0 mm 0.00 in0.0 mm
07:10 PM 94.7°F34.8°C 56.5°F13.6°C 28% 4.0 mph W6.4 kmh W 11.0 mph17.7 kmh 29.66 in1004.4 mb 0.00 in0.0 mm 0.00 in0.0 mm 0.00 in0.0 mm
07:15 PM 94.5°F34.7°C 56.4°F13.6°C 28% 4.0 mph W6.4 kmh W 9.0 mph14.5 kmh 29.66 in1004.4 mb 0.00 in0.0 mm 0.00 in0.0 mm 0.00 in0.0 mm
07:20 PM 94.4°F34.7°C 57.2°F14.0°C 29% 4.0 mph W6.4 kmh W 9.0 mph14.5 kmh 29.66 in1004.4 mb 0.00 in0.0 mm 0.00 in0.0 mm 0.00 in0.0 mm
07:25 PM 94.2°F34.6°C 57.1°F13.9°C 29% 4.0 mph W6.4 kmh W 9.0 mph14.5 kmh 29.67 in1004.7 mb 0.00 in0.0 mm 0.00 in0.0 mm 0.00 in0.0 mm
07:30 PM 94.0°F34.4°C 56.9°F13.8°C 29% 4.0 mph W6.4 kmh W 10.0 mph16.1 kmh 29.67 in1004.7 mb 0.00 in0.0 mm 0.00 in0.0 mm 0.00 in0.0 mm
07:35 PM 93.8°F34.3°C 57.7°F14.3°C 30% 4.0 mph W6.4 kmh W 10.0 mph16.1 kmh 29.66 in1004.4 mb 0.00 in0.0 mm 0.00 in0.0 mm 0.00 in0.0 mm
07:40 PM 93.7°F34.3°C 57.6°F14.2°C 30% 4.0 mph W6.4 kmh W 8.0 mph12.9 kmh 29.67 in1004.7 mb 0.00 in0.0 mm 0.00 in0.0 mm 0.00 in0.0 mm
07:45 PM 93.5°F34.2°C 57.4°F14.1°C 30% 4.0 mph W6.4 kmh W 8.0 mph12.9 kmh 29.67 in1004.7 mb 0.00 in0.0 mm 0.00 in0.0 mm 0.00 in0.0 mm
07:50 PM 93.4°F34.1°C 57.3°F14.1°C 30% 4.0 mph W6.4 kmh W 8.0 mph12.9 kmh 29.67 in1004.7 mb 0.00 in0.0 mm 0.00 in0.0 mm 0.00 in0.0 mm
07:55 PM 93.3°F34.1°C 57.2°F14.0°C 30% 3.0 mph W4.8 kmh W 7.0 mph11.3 kmh 29.67 in1004.7 mb 0.00 in0.0 mm 0.00 in0.0 mm 0.00 in0.0 mm
08:00 PM 93.2°F34.0°C 58.1°F14.5°C 31% 2.0 mph WSW3.2 kmh WSW 7.0 mph11.3 kmh 29.68 in1005.1 mb 0.00 in0.0 mm 0.00 in0.0 mm 0.00 in0.0 mm
08:05 PM 93.0°F33.9°C 57.9°F14.4°C 31% 2.0 mph WSW3.2 kmh WSW 7.0 mph11.3 kmh 29.68 in1005.1 mb 0.00 in0.0 mm 0.00 in0.0 mm 0.00 in0.0 mm
08:10 PM 92.9°F33.8°C 57.8°F14.3°C 31% 2.0 mph WSW3.2 kmh WSW 7.0 mph11.3 kmh 29.68 in1005.1 mb 0.00 in0.0 mm 0.00 in0.0 mm 0.00 in0.0 mm
08:15 PM 92.8°F33.8°C 57.7°F14.3°C 31% 2.0 mph W3.2 kmh W 7.0 mph11.3 kmh 29.69 in1005.4 mb 0.00 in0.0 mm 0.00 in0.0 mm 0.00 in0.0 mm
08:20 PM 92.6°F33.7°C 57.6°F14.2°C 31% 1.0 mph W1.6 kmh W 3.0 mph4.8 kmh 29.69 in1005.4 mb 0.00 in0.0 mm 0.00 in0.0 mm 0.00 in0.0 mm
08:25 PM 92.4°F33.6°C 58.3°F14.6°C 32% 1.0 mph W1.6 kmh W 3.0 mph4.8 kmh 29.69 in1005.4 mb 0.00 in0.0 mm 0.00 in0.0 mm 0.00 in0.0 mm
08:30 PM 92.2°F33.4°C 58.1°F14.5°C 32% 2.0 mph W3.2 kmh W 3.0 mph4.8 kmh 29.70 in1005.8 mb 0.00 in0.0 mm 0.00 in0.0 mm 0.00 in0.0 mm
08:35 PM 92.1°F33.4°C 58.0°F14.4°C 32% 1.0 mph W1.6 kmh W 3.0 mph4.8 kmh 29.70 in1005.8 mb 0.00 in0.0 mm 0.00 in0.0 mm 0.00 in0.0 mm
08:40 PM 91.9°F33.3°C 57.8°F14.3°C 32% 1.0 mph W1.6 kmh W 2.0 mph3.2 kmh 29.70 in1005.8 mb 0.00 in0.0 mm 0.00 in0.0 mm 0.00 in0.0 mm
08:45 PM 91.8°F33.2°C 58.6°F14.8°C 33% 1.0 mph W1.6 kmh W 3.0 mph4.8 kmh 29.70 in1005.8 mb 0.00 in0.0 mm 0.00 in0.0 mm 0.00 in0.0 mm
08:50 PM 91.6°F33.1°C 58.4°F14.7°C 33% 1.0 mph W1.6 kmh W 3.0 mph4.8 kmh 29.70 in1005.8 mb 0.00 in0.0 mm 0.00 in0.0 mm 0.00 in0.0 mm
08:55 PM 91.4°F33.0°C 58.3°F14.6°C 33% 1.0 mph W1.6 kmh W 3.0 mph4.8 kmh 29.70 in1005.8 mb 0.00 in0.0 mm 0.00 in0.0 mm 0.00 in0.0 mm
09:00 PM 91.3°F32.9°C 58.2°F14.6°C 33% 1.0 mph W1.6 kmh W 3.0 mph4.8 kmh 29.70 in1005.8 mb 0.00 in0.0 mm 0.00 in0.0 mm 0.00 in0.0 mm
09:05 PM 91.1°F32.8°C 58.0°F14.4°C 33% 1.0 mph W1.6 kmh W 3.0 mph4.8 kmh 29.70 in1005.8 mb 0.00 in0.0 mm 0.00 in0.0 mm 0.00 in0.0 mm
09:10 PM 91.0°F32.8°C 57.9°F14.4°C 33% 1.0 mph W1.6 kmh W 3.0 mph4.8 kmh 29.70 in1005.8 mb 0.00 in0.0 mm 0.00 in0.0 mm 0.00 in0.0 mm
09:15 PM 90.8°F32.7°C 58.6°F14.8°C 34% 1.0 mph W1.6 kmh W 2.0 mph3.2 kmh 29.71 in1006.1 mb 0.00 in0.0 mm 0.00 in0.0 mm 0.00 in0.0 mm
09:20 PM 90.7°F32.6°C 58.5°F14.7°C 34% 1.0 mph W1.6 kmh W 2.0 mph3.2 kmh 29.71 in1006.1 mb 0.00 in0.0 mm 0.00 in0.0 mm 0.00 in0.0 mm
09:25 PM 90.5°F32.5°C 58.3°F14.6°C 34% 1.0 mph W1.6 kmh W 2.0 mph3.2 kmh 29.71 in1006.1 mb 0.00 in0.0 mm 0.00 in0.0 mm 0.00 in0.0 mm
09:30 PM 90.4°F32.4°C 59.0°F15.0°C 35% 1.0 mph W1.6 kmh W 3.0 mph4.8 kmh 29.71 in1006.1 mb 0.00 in0.0 mm 0.00 in0.0 mm 0.00 in0.0 mm
09:35 PM 90.3°F32.4°C 58.9°F14.9°C 35% 1.0 mph W1.6 kmh W 3.0 mph4.8 kmh 29.71 in1006.1 mb 0.00 in0.0 mm 0.00 in0.0 mm 0.00 in0.0 mm
09:40 PM 90.2°F32.3°C 58.8°F14.9°C 35% 2.0 mph W3.2 kmh W 3.0 mph4.8 kmh 29.71 in1006.1 mb 0.00 in0.0 mm 0.00 in0.0 mm 0.00 in0.0 mm
09:45 PM 90.1°F32.3°C 58.8°F14.9°C 35% 2.0 mph W3.2 kmh W 3.0 mph4.8 kmh 29.71 in1006.1 mb 0.00 in0.0 mm 0.00 in0.0 mm 0.00 in0.0 mm
09:50 PM 90.0°F32.2°C 58.7°F14.8°C 35% 1.0 mph W1.6 kmh W 3.0 mph4.8 kmh 29.71 in1006.1 mb 0.00 in0.0 mm 0.00 in0.0 mm 0.00 in0.0 mm
09:55 PM 89.9°F32.2°C 59.4°F15.2°C 36% 1.0 mph W1.6 kmh W 3.0 mph4.8 kmh 29.70 in1005.8 mb 0.00 in0.0 mm 0.00 in0.0 mm 0.00 in0.0 mm
10:00 PM 89.8°F32.1°C 59.3°F15.2°C 36% 1.0 mph W1.6 kmh W 2.0 mph3.2 kmh 29.70 in1005.8 mb 0.00 in0.0 mm 0.00 in0.0 mm 0.00 in0.0 mm
10:05 PM 89.6°F32.0°C 59.9°F15.5°C 37% 1.0 mph W1.6 kmh W 2.0 mph3.2 kmh 29.71 in1006.1 mb 0.00 in0.0 mm 0.00 in0.0 mm 0.00 in0.0 mm
10:10 PM 89.4°F31.9°C 59.7°F15.4°C 37% 1.0 mph W1.6 kmh W 3.0 mph4.8 kmh 29.71 in1006.1 mb 0.00 in0.0 mm 0.00 in0.0 mm 0.00 in0.0 mm
10:15 PM 89.2°F31.8°C 59.5°F15.3°C 37% 1.0 mph W1.6 kmh W 3.0 mph4.8 kmh 29.71 in1006.1 mb 0.00 in0.0 mm 0.00 in0.0 mm 0.00 in0.0 mm
10:20 PM 89.1°F31.7°C 59.4°F15.2°C 37% 2.0 mph W3.2 kmh W 3.0 mph4.8 kmh 29.71 in1006.1 mb 0.00 in0.0 mm 0.00 in0.0 mm 0.00 in0.0 mm
10:25 PM 88.9°F31.6°C 59.3°F15.2°C 37% 2.0 mph W3.2 kmh W 3.0 mph4.8 kmh 29.71 in1006.1 mb 0.00 in0.0 mm 0.00 in0.0 mm 0.00 in0.0 mm
10:30 PM 88.9°F31.6°C 59.3°F15.2°C 37% 1.0 mph W1.6 kmh W 2.0 mph3.2 kmh 29.71 in1006.1 mb 0.00 in0.0 mm 0.00 in0.0 mm 0.00 in0.0 mm
10:35 PM 88.8°F31.6°C 59.2°F15.1°C 37% 1.0 mph W1.6 kmh W 2.0 mph3.2 kmh 29.71 in1006.1 mb 0.00 in0.0 mm 0.00 in0.0 mm 0.00 in0.0 mm
10:40 PM 88.7°F31.5°C 59.1°F15.1°C 37% 1.0 mph W1.6 kmh W 2.0 mph3.2 kmh 29.71 in1006.1 mb 0.00 in0.0 mm 0.00 in0.0 mm 0.00 in0.0 mm
10:45 PM 88.7°F31.5°C 59.8°F15.4°C 38% 1.0 mph W1.6 kmh W 2.0 mph3.2 kmh 29.71 in1006.1 mb 0.00 in0.0 mm 0.00 in0.0 mm 0.00 in0.0 mm
10:50 PM 88.6°F31.4°C 59.7°F15.4°C 38% 1.0 mph W1.6 kmh W 2.0 mph3.2 kmh 29.71 in1006.1 mb 0.00 in0.0 mm 0.00 in0.0 mm 0.00 in0.0 mm
10:55 PM 88.5°F31.4°C 60.4°F15.8°C 39% Calm Calm 2.0 mph3.2 kmh 29.71 in1006.1 mb 0.00 in0.0 mm 0.00 in0.0 mm 0.00 in0.0 mm
11:00 PM 88.3°F31.3°C 60.2°F15.7°C 39% 1.0 mph W1.6 kmh W 4.0 mph6.4 kmh 29.71 in1006.1 mb 0.00 in0.0 mm 0.00 in0.0 mm 0.00 in0.0 mm
11:05 PM 88.0°F31.1°C 59.9°F15.5°C 39% 2.0 mph WSW3.2 kmh WSW 6.0 mph9.7 kmh 29.72 in1006.4 mb 0.00 in0.0 mm 0.00 in0.0 mm 0.00 in0.0 mm
11:10 PM 87.8°F31.0°C 59.8°F15.4°C 39% 2.0 mph SW3.2 kmh SW 6.0 mph9.7 kmh 29.72 in1006.4 mb 0.00 in0.0 mm 0.00 in0.0 mm 0.00 in0.0 mm
11:15 PM 87.6°F30.9°C 60.3°F15.7°C 40% 2.0 mph SSW3.2 kmh SSW 6.0 mph9.7 kmh 29.72 in1006.4 mb 0.00 in0.0 mm 0.00 in0.0 mm 0.00 in0.0 mm
11:20 PM 87.5°F30.8°C 60.2°F15.7°C 40% 4.0 mph SSW6.4 kmh SSW 6.0 mph9.7 kmh 29.72 in1006.4 mb 0.00 in0.0 mm 0.00 in0.0 mm 0.00 in0.0 mm
11:25 PM 87.3°F30.7°C 60.0°F15.6°C 40% 4.0 mph S6.4 kmh S 6.0 mph9.7 kmh 29.72 in1006.4 mb 0.00 in0.0 mm 0.00 in0.0 mm 0.00 in0.0 mm
11:30 PM 87.1°F30.6°C 60.5°F15.8°C 41% 3.0 mph SSW4.8 kmh SSW 5.0 mph8.0 kmh 29.72 in1006.4 mb 0.00 in0.0 mm 0.00 in0.0 mm 0.00 in0.0 mm
11:35 PM 87.0°F30.6°C 60.5°F15.8°C 41% 3.0 mph SSW4.8 kmh SSW 5.0 mph8.0 kmh 29.71 in1006.1 mb 0.00 in0.0 mm 0.00 in0.0 mm 0.00 in0.0 mm
11:40 PM 86.9°F30.5°C 60.4°F15.8°C 41% 3.0 mph SSW4.8 kmh SSW 6.0 mph9.7 kmh 29.71 in1006.1 mb 0.00 in0.0 mm 0.00 in0.0 mm 0.00 in0.0 mm
11:45 PM 86.9°F30.5°C 60.4°F15.8°C 41% 3.0 mph SSW4.8 kmh SSW 6.0 mph9.7 kmh 29.71 in1006.1 mb 0.00 in0.0 mm 0.00 in0.0 mm 0.00 in0.0 mm
11:50 PM 86.8°F30.4°C 59.6°F15.3°C 40% 2.0 mph SSW3.2 kmh SSW 6.0 mph9.7 kmh 29.72 in1006.4 mb 0.00 in0.0 mm 0.00 in0.0 mm 0.00 in0.0 mm
11:55 PM 86.8°F30.4°C 59.6°F15.3°C 40% 2.0 mph SW3.2 kmh SW 4.0 mph6.4 kmh 29.72 in1006.4 mb 0.00 in0.0 mm 0.00 in0.0 mm 0.00 in0.0 mm